Furqlus, Syria
Current Conditions -  °F | °C
As of 9:00 PM on Wednesday 28 Jan 2015 (Local Time) from OSDI Reporting Station
Clear Clear  
Wind Chill:   Ceiling: Unl
Heat Index:   Visibility: 6mi
Dew Point: -3°   Wind: 7mph
Humidity: 46%   Direction: 230°SW
Pressure: 29.97"   Gusts: NA
Location:  34.6°N, 37.08°E
Report Text: OSDI 281800Z 23006KT CAVOK 08/M03 Q1015
Loading
Personal Weather Stations






























Interactive Weather Map New forecast layout! Learn more

10-Day Weather Forecast

Advertisements
Track Severe Weather on mobile